Aérodrome :
LOGIN :

S'inscrire | Disclaimer

   EN    FR    IT 

 










Légende :    VFR   VFR Marginal   IFR   IFR Intensif   IFR Très Intensif
Visi : 
Plafond : 
>= 8 km
>= 3000ft
5 à 8 km
1000 à 3000 ft
1500m à 5 km
500 à 1000 ft
800 à 1500m
200 à 500 ft
< 800m
< 200 ft
Symboles :   Orages  Brouillard  Fortes neiges  Fortes précipitations  Vent > 20 kt
SIGMETs :   Divers  Orages  Givrage  Turbulence  Onde Orograph.  Cendres Volcan.






- Altitude de l'aérodrome : 138 ft
- Code IATA : RLG


ETNL - Rostock Laage

DERNIER METAR :
  • 021520Z 25016G26KT 9999 BKN048 09/M01 Q1004 BLU BLU

METARs EXPIRÉS :
  • 021453Z 25015KT 9999 BKN046 09/M01 Q1004 BLU BLU
  • 021420Z 25014KT 9999 BKN046 10/M00 Q1005 BLU BLU
  • 021320Z 25015G25KT 9999 BKN048 10/M01 Q1005 BLU BLU

TAF TAF ETNL
Valide du 02 à 14h jusqu'au 02 à 23h UTC


021335Z 0214/0223 25015G25KT 9999 NSW FEW020 BKN050
TEMPO 0220/0223 27015G25KT 5000 -SHRA SCT012 BKN020 BY ETGL



MET'MAP, la Météo Aéronautique d'un coup d'oeil ! - Copyright ORBIFLY Décembre 2007 - Disclaimer

ORBIFLY MET'MAP TEAM :

Programmation & Développement : Alexandra Zaïnal
Sur une idée originale de : Baudouin d'Aumeries
Assistance à la programmation : Marc-Olivier Méhu
Soutien technique & logistique : Manuel Goepfert

Contact : metmap@orbifly.com




SOURCES & CREDITS :

   NOAA